createdAt,value
2018-02-10T00:02:17.248Z,68.36
2018-02-10T00:04:46.998Z,68.74
2018-02-10T00:07:17.017Z,68.89
2018-02-10T00:09:47.021Z,68.92
2018-02-10T00:12:16.435Z,69.01
2018-02-10T00:14:49.039Z,68.76
2018-02-10T00:17:20.088Z,68.63
2018-02-10T00:19:50.036Z,68.76
2018-02-10T00:22:28.812Z,69.12
2018-02-10T00:24:58.723Z,68.84
2018-02-10T00:27:28.914Z,68.45
2018-02-10T00:29:58.216Z,68.28
2018-02-10T00:32:27.462Z,68.14
2018-02-10T00:34:57.157Z,68.43
2018-02-10T00:37:26.811Z,68.36
2018-02-10T00:39:57.194Z,68.52
2018-02-10T00:42:27.482Z,68.70
2018-02-10T00:44:58.306Z,68.45
2018-02-10T00:47:28.897Z,68.75
2018-02-10T00:49:58.796Z,68.62
2018-02-10T00:52:28.040Z,68.69
2018-02-10T00:54:57.715Z,68.46
2018-02-10T00:57:27.005Z,68.23
2018-02-10T00:59:56.260Z,68.16
2018-02-10T01:02:25.513Z,68.05
2018-02-10T01:04:54.814Z,68.63
2018-02-10T01:07:24.421Z,68.61
2018-02-10T01:12:33.679Z,68.36
2018-02-10T01:15:04.990Z,68.73
2018-02-10T01:17:34.498Z,69.43
2018-02-10T01:20:05.014Z,69.57
2018-02-10T01:22:34.252Z,69.33
2018-02-10T01:25:03.699Z,69.38
2018-02-10T01:27:34.696Z,69.02
2018-02-10T01:30:07.139Z,68.73
2018-02-10T01:32:37.884Z,68.49
2018-02-10T01:35:09.299Z,68.74
2018-02-10T01:37:38.645Z,68.72
2018-02-10T01:40:07.891Z,68.39
2018-02-10T01:42:37.137Z,68.57
2018-02-10T01:45:06.382Z,68.61
2018-02-10T01:47:37.455Z,68.44
2018-02-10T01:50:15.597Z,68.63
2018-02-10T01:52:46.156Z,68.36
2018-02-10T01:55:15.398Z,68.35
2018-02-10T01:57:44.611Z,68.24
2018-02-10T02:00:13.821Z,68.38
2018-02-10T02:02:43.496Z,68.54
2018-02-10T02:05:12.714Z,68.58
2018-02-10T02:07:41.994Z,68.65
2018-02-10T02:10:11.597Z,68.56
2018-02-10T02:12:40.883Z,68.76
2018-02-10T02:15:10.085Z,69.22
2018-02-10T02:17:39.872Z,69.41
2018-02-10T02:20:09.182Z,69.44
2018-02-10T02:22:38.538Z,69.49
2018-02-10T02:25:08.211Z,69.33
2018-02-10T02:27:37.433Z,69.23
2018-02-10T02:30:08.596Z,69.20
2018-02-10T02:32:38.497Z,69.19
2018-02-10T02:35:07.729Z,69.05
2018-02-10T02:37:36.943Z,68.99
2018-02-10T02:40:07.272Z,68.71
2018-02-10T02:42:36.526Z,68.90
2018-02-10T02:45:05.832Z,69.17
2018-02-10T02:47:36.075Z,68.97
2018-02-10T02:50:06.636Z,68.93
2018-02-10T02:52:35.877Z,68.96
2018-02-10T02:55:05.890Z,68.85
2018-02-10T02:57:35.146Z,68.93
2018-02-10T03:00:05.490Z,68.88
2018-02-10T03:02:35.986Z,69.59
2018-02-10T03:05:05.319Z,69.64
2018-02-10T03:07:34.604Z,70.02
2018-02-10T03:10:05.528Z,69.81
2018-02-10T03:12:34.744Z,69.89
2018-02-10T03:15:04.229Z,71.02
2018-02-10T03:17:33.856Z,70.64
2018-02-10T03:20:04.965Z,70.44
2018-02-10T03:22:34.502Z,70.82
2018-02-10T03:25:04.367Z,70.74
2018-02-10T03:27:33.567Z,70.39
2018-02-10T03:30:03.537Z,70.27
2018-02-10T03:32:33.339Z,70.38
2018-02-10T03:35:03.837Z,70.74
2018-02-10T03:37:33.079Z,70.68
2018-02-10T03:40:03.793Z,70.56
2018-02-10T03:42:33.121Z,70.46
2018-02-10T03:45:02.962Z,71.04
2018-02-10T03:47:32.732Z,71.59
2018-02-10T03:50:02.683Z,71.41
2018-02-10T03:52:31.975Z,71.35
2018-02-10T03:55:02.339Z,71.16
2018-02-10T03:57:31.596Z,71.14
2018-02-10T04:00:00.923Z,71.08
2018-02-10T04:02:30.710Z,71.01
2018-02-10T04:05:00.007Z,71.13
2018-02-10T04:07:29.373Z,71.18
2018-02-10T04:09:58.970Z,71.65
2018-02-10T04:12:28.206Z,71.27
2018-02-10T04:14:57.766Z,71.53
2018-02-10T04:17:27.356Z,71.67
2018-02-10T04:19:56.628Z,71.57
2018-02-10T04:22:25.919Z,71.56
2018-02-10T04:24:56.124Z,71.48
2018-02-10T04:27:25.486Z,71.52
2018-02-10T04:29:54.933Z,71.59
2018-02-10T04:32:25.741Z,71.95
2018-02-10T04:34:55.265Z,72.50
2018-02-10T04:37:24.731Z,72.19
2018-02-10T04:39:54.806Z,72.23
2018-02-10T04:42:24.437Z,71.90
2018-02-10T04:44:53.733Z,71.86
2018-02-10T04:47:23.362Z,71.59
2018-02-10T04:49:52.782Z,72.17
2018-02-10T04:52:22.125Z,71.81
2018-02-10T04:54:52.330Z,71.40
2018-02-10T04:57:21.652Z,71.54
2018-02-10T04:59:51.437Z,71.71
2018-02-10T05:02:21.136Z,71.31
2018-02-10T05:04:51.117Z,71.37
2018-02-10T05:07:20.395Z,71.81
2018-02-10T05:09:50.638Z,71.40
2018-02-10T05:12:20.023Z,71.50
2018-02-10T05:14:49.454Z,71.60
2018-02-10T05:17:20.263Z,71.47
2018-02-10T05:19:49.521Z,72.01
2018-02-10T05:22:19.056Z,72.61
2018-02-10T05:24:48.953Z,72.36
2018-02-10T05:27:18.280Z,71.66
2018-02-10T05:29:47.746Z,71.45
2018-02-10T05:32:17.563Z,71.45
2018-02-10T05:34:46.959Z,71.71
2018-02-10T05:37:16.343Z,71.50
2018-02-10T05:39:47.206Z,71.47
2018-02-10T05:42:16.721Z,70.98
2018-02-10T05:44:47.060Z,70.87
2018-02-10T05:47:16.841Z,70.68
2018-02-10T05:49:47.352Z,70.80
2018-02-10T05:52:16.644Z,71.02
2018-02-10T05:54:46.351Z,70.98
2018-02-10T05:57:15.593Z,70.75
2018-02-10T05:59:44.815Z,70.68
2018-02-10T06:02:14.898Z,71.00
2018-02-10T06:04:44.483Z,71.75
2018-02-10T06:07:13.731Z,72.30
2018-02-10T06:09:43.565Z,72.13
2018-02-10T06:12:12.991Z,71.71
2018-02-10T06:14:42.306Z,71.59
2018-02-10T06:17:12.998Z,71.53
2018-02-10T06:19:42.332Z,71.67
2018-02-10T06:22:12.021Z,71.89
2018-02-10T06:24:42.071Z,72.10
2018-02-10T06:27:11.411Z,72.15
2018-02-10T06:29:41.049Z,72.18
2018-02-10T06:32:12.550Z,72.07
2018-02-10T06:34:42.197Z,71.88
2018-02-10T06:39:42.210Z,71.75
2018-02-10T06:42:11.806Z,71.17
2018-02-10T06:44:41.345Z,70.79
2018-02-10T06:47:11.622Z,70.63
2018-02-10T06:49:41.411Z,70.62
2018-02-10T06:52:10.686Z,70.12
2018-02-10T06:54:40.594Z,69.72
2018-02-10T06:57:10.652Z,70.13
2018-02-10T06:59:40.077Z,69.95
2018-02-10T07:02:09.898Z,69.96
2018-02-10T07:04:39.217Z,69.78
2018-02-10T07:07:08.453Z,70.15
2018-02-10T07:09:38.492Z,70.03
2018-02-10T07:12:07.809Z,70.22
2018-02-10T07:14:37.408Z,70.22
2018-02-10T07:17:08.053Z,70.21
2018-02-10T07:19:37.401Z,70.04
2018-02-10T07:22:06.625Z,70.14
2018-02-10T07:24:36.399Z,70.33
2018-02-10T07:27:06.279Z,70.26
2018-02-10T07:29:35.672Z,70.39
2018-02-10T07:32:07.439Z,70.68
2018-02-10T07:34:37.212Z,70.49
2018-02-10T07:37:06.577Z,70.52
2018-02-10T07:39:37.199Z,71.32
2018-02-10T07:42:06.518Z,71.83
2018-02-10T07:44:35.816Z,72.05
2018-02-10T07:47:06.826Z,72.23
2018-02-10T07:49:36.498Z,72.02
2018-02-10T07:52:06.602Z,71.67
2018-02-10T07:54:36.299Z,71.99
2018-02-10T07:57:06.179Z,71.75
2018-02-10T07:59:35.627Z,71.52
2018-02-10T08:02:06.430Z,71.39
2018-02-10T08:04:35.650Z,71.07
2018-02-10T08:07:05.714Z,70.75
2018-02-10T08:09:36.851Z,71.37
2018-02-10T08:12:06.984Z,71.35
2018-02-10T08:14:36.573Z,71.05
2018-02-10T08:17:06.349Z,70.36
2018-02-10T08:19:35.699Z,70.07
2018-02-10T08:22:05.760Z,69.79
2018-02-10T08:24:36.722Z,70.08
2018-02-10T08:27:06.090Z,69.56
2018-02-10T08:29:35.531Z,69.46
2018-02-10T08:32:06.106Z,69.60
2018-02-10T08:34:35.435Z,69.53
2018-02-10T08:37:05.510Z,69.38
2018-02-10T08:39:36.623Z,69.35
2018-02-10T08:42:06.467Z,69.71
2018-02-10T08:44:35.717Z,69.76
2018-02-10T08:47:05.901Z,69.81
2018-02-10T08:49:35.119Z,69.47
2018-02-10T08:52:05.297Z,69.40
2018-02-10T08:54:35.033Z,69.81
2018-02-10T08:57:04.607Z,69.38
2018-02-10T08:59:33.933Z,69.10
2018-02-10T09:02:05.090Z,68.95
2018-02-10T09:04:34.491Z,68.83
2018-02-10T09:07:04.130Z,68.99
2018-02-10T09:09:33.905Z,69.28
2018-02-10T09:12:04.406Z,69.70
2018-02-10T09:14:33.676Z,70.43
2018-02-10T09:17:03.801Z,69.92
2018-02-10T09:19:33.183Z,69.34
2018-02-10T09:22:04.895Z,69.09
2018-02-10T09:24:34.661Z,69.10
2018-02-10T09:27:05.318Z,68.69
2018-02-10T09:29:34.675Z,68.89
2018-02-10T09:32:06.489Z,68.92
2018-02-10T09:34:35.953Z,68.34
2018-02-10T09:37:05.241Z,68.71
2018-02-10T09:39:34.910Z,68.40
2018-02-10T09:42:05.372Z,67.79
2018-02-10T09:44:34.587Z,67.61
2018-02-10T09:47:05.205Z,67.39
2018-02-10T09:49:35.063Z,68.04
2018-02-10T09:52:05.489Z,67.63
2018-02-10T09:54:34.743Z,68.54
2018-02-10T09:57:04.388Z,68.13
2018-02-10T09:59:35.201Z,67.79
2018-02-10T10:02:05.516Z,67.88
2018-02-10T10:04:34.830Z,67.39
2018-02-10T10:07:04.719Z,67.50
2018-02-10T10:09:34.269Z,67.37
2018-02-10T10:12:05.806Z,67.47
2018-02-10T10:14:35.588Z,67.51
2018-02-10T10:17:06.238Z,67.04
2018-02-10T10:19:35.503Z,67.10
2018-02-10T10:22:06.292Z,66.97
2018-02-10T10:24:35.610Z,66.81
2018-02-10T10:27:05.858Z,66.79
2018-02-10T10:29:35.346Z,67.14
2018-02-10T10:32:05.887Z,66.62
2018-02-10T10:34:35.156Z,66.60
2018-02-10T10:37:05.201Z,66.44
2018-02-10T10:39:34.539Z,66.07
2018-02-10T10:42:05.901Z,65.57
2018-02-10T10:44:35.402Z,65.42
2018-02-10T10:47:05.580Z,64.99
2018-02-10T10:49:34.847Z,66.47
2018-02-10T10:52:05.274Z,65.74
2018-02-10T10:54:49.328Z,65.54
2018-02-10T10:57:18.930Z,65.56
2018-02-10T11:02:17.335Z,65.76
2018-02-10T11:04:48.621Z,66.69
2018-02-10T11:07:21.166Z,66.46
2018-02-10T11:09:50.540Z,66.26
2018-02-10T11:12:19.834Z,65.89
2018-02-10T11:14:49.164Z,65.66
2018-02-10T11:17:18.846Z,65.38
2018-02-10T11:19:48.066Z,65.75
2018-02-10T11:22:17.985Z,66.27
2018-02-10T11:24:47.914Z,66.47
2018-02-10T11:27:17.157Z,66.61
2018-02-10T11:29:47.232Z,66.89
2018-02-10T11:32:17.144Z,66.44
2018-02-10T11:34:46.769Z,66.40
2018-02-10T11:37:16.456Z,66.35
2018-02-10T11:39:46.118Z,66.39
2018-02-10T11:42:15.398Z,66.40
2018-02-10T11:44:44.959Z,65.93
2018-02-10T11:47:14.194Z,66.02
2018-02-10T11:49:43.505Z,66.44
2018-02-10T11:52:12.794Z,66.12
2018-02-10T11:54:42.339Z,66.01
2018-02-10T11:57:11.645Z,66.01
2018-02-10T11:59:41.699Z,65.64
2018-02-10T12:02:10.980Z,65.55
2018-02-10T12:04:40.248Z,65.93
2018-02-10T12:07:09.974Z,66.07
2018-02-10T12:09:39.266Z,66.40
2018-02-10T12:12:08.543Z,66.33
2018-02-10T12:14:38.243Z,66.41
2018-02-10T12:17:07.468Z,66.69
2018-02-10T12:19:36.723Z,66.27
2018-02-10T12:22:07.567Z,66.79
2018-02-10T12:24:36.928Z,66.96
2018-02-10T12:27:06.338Z,66.77
2018-02-10T12:29:36.070Z,66.96
2018-02-10T12:32:06.144Z,66.69
2018-02-10T12:34:35.495Z,66.70
2018-02-10T12:39:49.175Z,66.93
2018-02-10T12:42:18.794Z,66.45
2018-02-10T12:44:48.084Z,65.79
2018-02-10T12:47:17.883Z,65.79
2018-02-10T12:49:47.510Z,65.83
2018-02-10T12:52:16.769Z,65.37
2018-02-10T12:54:46.040Z,64.77
2018-02-10T12:57:15.587Z,64.79
2018-02-10T12:59:44.889Z,64.08
2018-02-10T13:02:14.225Z,62.94
2018-02-10T13:04:43.958Z,62.35
2018-02-10T13:07:13.219Z,61.59
2018-02-10T13:09:42.610Z,61.44
2018-02-10T13:12:12.040Z,60.39
2018-02-10T13:14:41.810Z,59.83
2018-02-10T13:17:11.326Z,59.76
2018-02-10T13:22:07.134Z,60.26
2018-02-10T13:24:36.700Z,60.54
2018-02-10T13:27:07.407Z,60.35
2018-02-10T13:29:37.415Z,60.29
2018-02-10T13:32:06.855Z,59.25
2018-02-10T13:34:36.819Z,60.02
2018-02-10T13:37:09.238Z,59.97
2018-02-10T13:39:41.110Z,59.18
2018-02-10T13:42:11.785Z,59.26
2018-02-10T13:44:41.410Z,59.16
2018-02-10T13:47:10.960Z,59.01
2018-02-10T13:49:40.720Z,58.92
2018-02-10T13:52:10.057Z,58.94
2018-02-10T13:54:39.372Z,58.70
2018-02-10T13:57:09.007Z,59.00
2018-02-10T13:59:38.424Z,59.59
2018-02-10T14:02:07.821Z,59.82
2018-02-10T14:04:37.470Z,60.63
2018-02-10T14:07:07.528Z,60.68
2018-02-10T14:09:36.771Z,60.63
2018-02-10T14:12:07.411Z,59.93
2018-02-10T14:17:08.371Z,60.89
2018-02-10T14:19:38.450Z,60.74
2018-02-10T14:22:07.980Z,60.65
2018-02-10T14:24:37.429Z,60.27
2018-02-10T14:27:07.100Z,60.11
2018-02-10T14:29:36.445Z,59.51
2018-02-10T14:32:06.968Z,59.57
2018-02-10T14:34:38.036Z,59.48
2018-02-10T14:37:07.413Z,59.33
2018-02-10T14:39:37.146Z,59.70
2018-02-10T14:42:07.165Z,59.62
2018-02-10T14:44:36.506Z,60.03
2018-02-10T14:47:06.683Z,59.82
2018-02-10T14:49:36.330Z,60.41
2018-02-10T14:52:06.509Z,60.22
2018-02-10T14:54:35.866Z,60.13
2018-02-10T14:57:05.765Z,60.36
2018-02-10T14:59:35.194Z,59.95
2018-02-10T15:02:05.700Z,60.23
2018-02-10T15:04:35.359Z,59.96
2018-02-10T15:07:04.754Z,59.73
2018-02-10T15:09:34.193Z,59.71
2018-02-10T15:12:06.766Z,60.08
2018-02-10T15:14:36.247Z,60.09
2018-02-10T15:17:06.453Z,60.11
2018-02-10T15:19:36.194Z,60.63
2018-02-10T15:22:06.320Z,60.72
2018-02-10T15:24:35.587Z,60.60
2018-02-10T15:27:06.539Z,60.45
2018-02-10T15:29:45.308Z,60.80
2018-02-10T15:34:29.662Z,60.67
2018-02-10T15:41:35.063Z,60.40
2018-02-10T15:44:05.603Z,60.40
2018-02-10T15:46:35.385Z,60.39
2018-02-10T15:49:04.773Z,60.78
2018-02-10T15:51:34.115Z,61.12
2018-02-10T15:54:04.963Z,61.06
2018-02-10T15:56:34.195Z,61.40
2018-02-10T15:59:04.021Z,61.65
2018-02-10T16:01:33.690Z,61.75
2018-02-10T16:04:03.708Z,62.12
2018-02-10T16:06:33.674Z,62.28
2018-02-10T16:09:03.213Z,62.30
2018-02-10T16:11:32.808Z,62.26
2018-02-10T16:14:05.151Z,62.18
2018-02-10T16:16:34.562Z,62.39
2018-02-10T16:19:04.420Z,62.76
2018-02-10T16:21:34.197Z,62.44
2018-02-10T16:24:04.282Z,62.58
2018-02-10T16:26:34.110Z,62.89
2018-02-10T16:29:03.826Z,63.29
2018-02-10T16:31:33.088Z,63.57
2018-02-10T16:34:03.640Z,63.75
2018-02-10T16:36:33.133Z,64.46
2018-02-10T16:39:03.161Z,64.81
2018-02-10T16:41:32.879Z,64.86
2018-02-10T16:44:04.740Z,65.09
2018-02-10T16:46:34.651Z,65.57
2018-02-10T16:49:05.244Z,65.35
2018-02-10T16:51:34.916Z,65.36
2018-02-10T16:54:05.567Z,65.61
2018-02-10T16:56:35.545Z,65.66
2018-02-10T16:59:06.165Z,65.73
2018-02-10T17:01:35.414Z,66.56
2018-02-10T17:04:06.279Z,66.71
2018-02-10T17:06:35.614Z,66.78
2018-02-10T17:09:05.556Z,66.75
2018-02-10T17:11:35.202Z,66.68
2018-02-10T17:14:05.187Z,66.79
2018-02-10T17:16:34.527Z,66.81
2018-02-10T17:19:05.931Z,66.91
2018-02-10T17:21:35.459Z,66.96
2018-02-10T17:24:06.113Z,67.01
2018-02-10T17:26:35.488Z,66.70
2018-02-10T17:29:05.447Z,66.90
2018-02-10T17:31:34.855Z,66.74
2018-02-10T17:34:05.289Z,67.15
2018-02-10T17:36:34.675Z,67.32
2018-02-10T17:39:04.575Z,67.15
2018-02-10T17:41:34.226Z,67.02
2018-02-10T17:44:04.189Z,66.95
2018-02-10T17:46:33.669Z,66.93
2018-02-10T17:49:03.267Z,66.92
2018-02-10T17:51:32.598Z,67.17
2018-02-10T17:54:04.387Z,67.21
2018-02-10T17:56:34.092Z,67.39
2018-02-10T17:59:03.846Z,67.15
2018-02-10T18:01:34.829Z,67.15
2018-02-10T18:04:06.439Z,67.12
2018-02-10T18:06:36.171Z,66.85
2018-02-10T18:09:06.504Z,67.02
2018-02-10T18:11:36.429Z,67.42
2018-02-10T18:14:07.079Z,67.59
2018-02-10T18:16:36.342Z,67.74
2018-02-10T18:19:06.367Z,67.38
2018-02-10T18:21:35.931Z,67.67
2018-02-10T18:24:07.147Z,67.76
2018-02-10T18:26:36.447Z,68.14
2018-02-10T18:29:07.227Z,68.12
2018-02-10T18:31:36.479Z,67.94
2018-02-10T18:34:06.898Z,67.93
2018-02-10T18:36:36.575Z,68.34
2018-02-10T18:39:06.329Z,69.10
2018-02-10T18:41:35.683Z,68.82
2018-02-10T18:44:06.429Z,68.74
2018-02-10T18:46:35.742Z,68.85
2018-02-10T18:49:06.346Z,69.07
2018-02-10T18:51:37.342Z,69.15
2018-02-10T18:54:07.211Z,69.49
2018-02-10T18:56:36.516Z,69.43
2018-02-10T18:59:06.109Z,69.51
2018-02-10T19:01:35.350Z,69.26
2018-02-10T19:04:05.473Z,69.19
2018-02-10T19:06:35.038Z,69.40
2018-02-10T19:10:33.673Z,69.37
2018-02-10T19:13:04.083Z,69.20
2018-02-10T19:15:33.370Z,69.19
2018-02-10T19:18:04.668Z,69.39
2018-02-10T19:20:34.272Z,69.71
2018-02-10T19:23:04.105Z,69.69
2018-02-10T19:25:33.377Z,70.18
2018-02-10T19:28:04.982Z,70.46
2018-02-10T19:30:34.491Z,70.60
2018-02-10T19:33:03.980Z,70.87
2018-02-10T19:35:33.524Z,71.02
2018-02-10T19:38:04.607Z,70.95
2018-02-10T19:40:33.893Z,71.01
2018-02-10T19:43:03.933Z,70.69
2018-02-10T19:45:33.221Z,71.31
2018-02-10T19:48:04.027Z,71.06
2018-02-10T19:50:33.658Z,70.75
2018-02-10T19:53:03.109Z,70.98
2018-02-10T19:55:32.449Z,70.69
2018-02-10T19:58:03.546Z,70.89
2018-02-10T20:00:33.504Z,70.61
2018-02-10T20:03:03.313Z,70.49
2018-02-10T20:05:33.309Z,70.63
2018-02-10T20:08:04.630Z,71.36
2018-02-10T20:10:33.898Z,70.98
2018-02-10T20:13:03.835Z,70.86
2018-02-10T20:15:33.081Z,71.00
2018-02-10T20:18:03.246Z,71.02
2018-02-10T20:20:32.908Z,70.88
2018-02-10T20:23:03.298Z,70.80
2018-02-10T20:25:32.667Z,70.74
2018-02-10T20:28:04.612Z,70.65
2018-02-10T20:30:33.886Z,70.44
2018-02-10T20:33:03.881Z,70.65
2018-02-10T20:35:33.422Z,70.85
2018-02-10T20:38:04.875Z,71.19
2018-02-10T20:40:34.214Z,71.47
2018-02-10T20:43:04.477Z,71.49
2018-02-10T20:45:33.993Z,71.28
2018-02-10T20:48:04.562Z,71.15
2018-02-10T20:50:34.279Z,71.13
2018-02-10T20:53:04.509Z,71.42
2018-02-10T20:55:33.899Z,72.14
2018-02-10T20:58:06.262Z,71.95
2018-02-10T21:00:35.818Z,71.78
2018-02-10T21:03:05.632Z,72.18
2018-02-10T21:05:35.823Z,72.40
2018-02-10T21:08:06.447Z,72.61
2018-02-10T21:10:35.715Z,72.43
2018-02-10T21:13:06.085Z,72.00
2018-02-10T21:15:35.397Z,71.86
2018-02-10T21:18:06.625Z,72.43
2018-02-10T21:20:36.316Z,72.60
2018-02-10T21:23:06.483Z,72.23
2018-02-10T21:25:35.827Z,71.73
2018-02-10T21:28:07.042Z,71.53
2018-02-10T21:30:36.508Z,71.13
2018-02-10T21:33:05.813Z,70.57
2018-02-10T21:35:35.447Z,69.88
2018-02-10T21:38:06.105Z,69.60
2018-02-10T21:40:35.465Z,69.57
2018-02-10T21:43:05.516Z,69.69
2018-02-10T21:45:35.553Z,69.05
2018-02-10T21:48:06.574Z,68.03
2018-02-10T21:50:36.778Z,68.08
2018-02-10T21:53:06.669Z,67.20
2018-02-10T21:55:36.366Z,67.80
2018-02-10T21:58:08.015Z,67.21
2018-02-10T22:00:38.190Z,67.47
2018-02-10T22:03:07.858Z,67.40
2018-02-10T22:05:38.198Z,67.15
2018-02-10T22:08:08.149Z,66.76
2018-02-10T22:10:38.917Z,66.39
2018-02-10T22:13:09.323Z,66.47
2018-02-10T22:15:39.781Z,67.78
2018-02-10T22:18:10.105Z,68.28
2018-02-10T22:20:39.999Z,70.18
2018-02-10T22:23:10.844Z,70.92
2018-02-10T22:25:40.756Z,71.34
2018-02-10T22:28:10.569Z,71.47
2018-02-10T22:30:41.801Z,71.57
2018-02-10T22:33:11.836Z,71.85
2018-02-10T22:35:41.130Z,72.45
2018-02-10T22:38:12.966Z,72.58
2018-02-10T22:40:42.647Z,72.61
2018-02-10T22:43:11.897Z,72.97
2018-02-10T22:45:41.578Z,72.63
2018-02-10T22:48:10.801Z,72.77
2018-02-10T22:50:41.033Z,72.98
2018-02-10T22:53:12.127Z,73.43
2018-02-10T22:55:42.010Z,73.04
2018-02-10T22:58:11.809Z,72.93
2018-02-10T23:00:43.127Z,72.88
2018-02-10T23:03:13.311Z,72.94
2018-02-10T23:05:42.816Z,73.43
2018-02-10T23:08:12.746Z,73.56
2018-02-10T23:10:43.012Z,73.36
2018-02-10T23:13:12.315Z,73.27
2018-02-10T23:15:42.195Z,73.02
2018-02-10T23:18:12.239Z,73.50
2018-02-10T23:20:41.673Z,73.32
2018-02-10T23:23:11.646Z,73.37
2018-02-10T23:25:41.685Z,73.38
2018-02-10T23:28:13.484Z,72.97
2018-02-10T23:30:44.087Z,73.06
2018-02-10T23:33:13.515Z,72.90
2018-02-10T23:35:44.105Z,72.88
2018-02-10T23:38:15.992Z,73.00
2018-02-10T23:40:45.801Z,73.36
2018-02-10T23:43:15.366Z,73.82
2018-02-10T23:45:47.569Z,73.92
2018-02-10T23:48:17.079Z,74.21
2018-02-10T23:50:46.459Z,74.41
2018-02-10T23:53:16.040Z,74.91
2018-02-10T23:55:45.521Z,74.78
2018-02-10T23:58:14.791Z,75.25
